Time;durP1;ratioP1;P1;durP2;ratioP2;P2;SDS_P1;SDS_P2;PMS_P1;PMS_P2;Temp;Humidity;BMP_temperature;BMP_pressure;BME280_temperature;BME280_humidity;BME280_pressure;Samples;Min_cycle;Max_cycle;Signal;HPM_P1;HPM_P2
2021/08/11 00:02:36;;;;;;;3.57;3.30;;;22.40;36.70;;;;;;10375712;28;20240;-79
2021/08/11 00:07:39;;;;;;;3.77;3.47;;;22.30;37.00;;;;;;10375191;28;20257;-79
2021/08/11 00:12:42;;;;;;;3.40;3.00;;;22.20;36.60;;;;;;10375885;28;20233;-79
2021/08/11 00:17:47;;;;;;;3.47;3.27;;;22.20;36.60;;;;;;10375381;28;20238;-81
2021/08/11 00:22:50;;;;;;;4.97;3.40;;;22.10;37.30;;;;;;10374961;28;20226;-79
2021/08/11 00:27:54;;;;;;;3.40;3.10;;;22.10;37.00;;;;;;10375042;28;20653;-78
2021/08/11 00:32:59;;;;;;;5.17;3.20;;;22.10;37.10;;;;;;10373564;28;20605;-79
2021/08/11 00:38:03;;;;;;;4.13;2.87;;;22.10;37.40;;;;;;10373899;28;20641;-79
2021/08/11 00:43:08;;;;;;;3.23;2.93;;;22.10;37.30;;;;;;10373984;28;20596;-79
2021/08/11 00:48:14;;;;;;;3.67;2.50;;;22.10;37.40;;;;;;10373849;28;20241;-79
2021/08/11 00:53:18;;;;;;;3.40;2.73;;;22.10;37.50;;;;;;10373255;28;20600;-79
2021/08/11 00:58:22;;;;;;;3.90;3.60;;;22.10;36.90;;;;;;10373458;28;20246;-79
2021/08/11 01:03:29;;;;;;;3.43;3.13;;;22.10;36.80;;;;;;10373869;28;20226;-79
2021/08/11 01:08:33;;;;;;;3.43;3.13;;;22.00;37.10;;;;;;10373155;28;20237;-79
2021/08/11 01:13:36;;;;;;;3.40;3.10;;;21.90;36.70;;;;;;10372326;28;20234;-79
2021/08/11 01:18:42;;;;;;;4.00;3.60;;;21.80;36.80;;;;;;10372656;28;20229;-79
2021/08/11 01:24:00;;;;;;;3.40;3.20;;;21.70;37.90;;;;;;10373019;28;20234;-79
2021/08/11 01:29:08;;;;;;;3.07;2.77;;;21.60;37.90;;;;;;10371726;28;20234;-79
2021/08/11 01:34:16;;;;;;;3.17;2.63;;;21.50;37.80;;;;;;10371791;28;20234;-79
2021/08/11 01:39:28;;;;;;;3.67;3.20;;;21.40;38.00;;;;;;10372732;28;20234;-79
2021/08/11 01:44:39;;;;;;;3.07;2.77;;;21.30;38.30;;;;;;10373818;28;20230;-79
2021/08/11 01:49:44;;;;;;;3.03;2.63;;;21.40;38.60;;;;;;10379325;28;20238;-79
2021/08/11 01:54:49;;;;;;;3.53;3.23;;;21.30;37.70;;;;;;10379794;28;20238;-79
2021/08/11 01:59:54;;;;;;;3.33;3.03;;;21.30;37.60;;;;;;10378932;28;20545;-79
2021/08/11 02:04:58;;;;;;;7.70;3.13;;;21.40;38.50;;;;;;10379334;28;20234;-79
2021/08/11 02:10:02;;;;;;;3.23;2.90;;;21.40;38.70;;;;;;10378530;28;20714;-79
2021/08/11 02:15:08;;;;;;;3.00;2.70;;;21.40;37.90;;;;;;10379807;28;20244;-79
2021/08/11 02:20:15;;;;;;;3.77;3.47;;;21.40;38.50;;;;;;10379005;28;20258;-79
2021/08/11 02:25:18;;;;;;;5.63;3.57;;;21.40;39.00;;;;;;10378845;28;20240;-79
2021/08/11 02:30:24;;;;;;;3.43;3.17;;;21.40;37.70;;;;;;10378407;28;20249;-79
2021/08/11 02:35:32;;;;;;;3.63;3.33;;;21.30;38.30;;;;;;10378052;28;20256;-79
2021/08/11 02:40:39;;;;;;;5.27;2.90;;;21.30;39.10;;;;;;10378848;28;20580;-79
2021/08/11 02:45:43;;;;;;;3.60;3.30;;;21.20;39.00;;;;;;10378596;28;20236;-79
2021/08/11 02:50:50;;;;;;;3.30;3.00;;;21.20;38.40;;;;;;10380892;28;20586;-80
2021/08/11 02:55:53;;;;;;;3.90;3.60;;;21.10;39.10;;;;;;10385697;28;20714;-80
2021/08/11 03:00:58;;;;;;;3.23;2.93;;;21.10;38.60;;;;;;10385905;28;20258;-80
2021/08/11 03:06:03;;;;;;;3.50;3.30;;;21.00;38.80;;;;;;10385877;28;20238;-80
2021/08/11 03:11:10;;;;;;;3.53;3.23;;;21.00;39.30;;;;;;10385298;28;20325;-80
2021/08/11 03:16:14;;;;;;;4.00;3.20;;;20.90;39.40;;;;;;10402731;28;20230;-78
2021/08/11 03:21:20;;;;;;;3.73;3.10;;;20.90;38.90;;;;;;10426116;28;20237;-79
2021/08/11 03:26:23;;;;;;;3.57;3.27;;;20.90;39.10;;;;;;10424878;28;20237;-80
2021/08/11 03:31:34;;;;;;;3.83;3.03;;;20.90;38.80;;;;;;10425485;28;20241;-80
2021/08/11 03:36:39;;;;;;;3.13;2.77;;;20.90;39.50;;;;;;10424038;28;20241;-80
2021/08/11 03:41:42;;;;;;;3.93;2.60;;;20.90;39.10;;;;;;10421209;28;20244;-80
2021/08/11 03:46:46;;;;;;;3.60;3.00;;;20.90;38.70;;;;;;10422467;28;20643;-79
2021/08/11 03:51:50;;;;;;;3.50;3.20;;;20.90;39.10;;;;;;10421007;28;20237;-79
2021/08/11 03:57:00;;;;;;;3.23;2.93;;;20.80;39.30;;;;;;10422274;28;20234;-80
2021/08/11 04:02:04;;;;;;;4.13;3.10;;;20.80;39.80;;;;;;10421502;28;20237;-80
2021/08/11 04:07:09;;;;;;;3.50;3.20;;;20.80;39.00;;;;;;10392606;28;20317;-80
2021/08/11 04:12:12;;;;;;;4.23;2.97;;;20.70;39.40;;;;;;10379039;28;20242;-78
2021/08/11 04:17:15;;;;;;;4.07;3.60;;;20.80;39.30;;;;;;10379314;28;20249;-79
2021/08/11 04:22:20;;;;;;;5.33;3.90;;;20.70;39.20;;;;;;10379736;28;20626;-80
2021/08/11 04:27:23;;;;;;;6.33;3.10;;;20.70;39.80;;;;;;10379530;28;20744;-80
2021/08/11 04:32:27;;;;;;;4.53;3.60;;;20.70;39.30;;;;;;10383018;28;20241;-80
2021/08/11 04:37:40;;;;;;;6.03;3.50;;;20.70;39.40;;;;;;10420083;28;20229;-80
2021/08/11 04:42:44;;;;;;;4.00;3.00;;;20.60;40.50;;;;;;10420076;28;20311;-80
2021/08/11 04:47:48;;;;;;;5.03;4.00;;;20.60;39.50;;;;;;10419647;28;20240;-79
2021/08/11 04:52:52;;;;;;;8.37;3.53;;;20.60;39.80;;;;;;10419806;28;20233;-79
2021/08/11 04:57:57;;;;;;;3.70;3.40;;;20.60;40.10;;;;;;10379512;28;20265;-79
2021/08/11 05:03:00;;;;;;;3.90;3.60;;;20.50;39.80;;;;;;10378375;28;20238;-79
2021/08/11 05:08:05;;;;;;;4.03;3.63;;;20.50;40.10;;;;;;10378962;28;20246;-80
2021/08/11 05:13:09;;;;;;;4.37;3.60;;;20.50;40.80;;;;;;10379610;28;20234;-79
2021/08/11 05:18:13;;;;;;;3.97;3.57;;;20.50;40.60;;;;;;10370113;28;20248;-76
2021/08/11 05:23:17;;;;;;;3.90;3.60;;;20.50;40.50;;;;;;10372868;28;20241;-76
2021/08/11 05:28:20;;;;;;;4.33;3.93;;;20.50;41.10;;;;;;10373652;28;20233;-76
2021/08/11 05:33:28;;;;;;;4.07;3.67;;;20.60;40.80;;;;;;10371573;28;20226;-75
2021/08/11 05:38:32;;;;;;;4.53;4.03;;;20.60;40.80;;;;;;10371901;28;20244;-76
2021/08/11 05:43:35;;;;;;;4.53;3.80;;;20.70;41.70;;;;;;10371818;28;20237;-75
2021/08/11 05:48:39;;;;;;;4.43;3.90;;;20.70;41.10;;;;;;10370427;28;20234;-75
2021/08/11 05:53:43;;;;;;;4.27;3.87;;;20.70;41.30;;;;;;10369534;28;20234;-76
2021/08/11 05:58:46;;;;;;;3.70;3.40;;;20.80;42.00;;;;;;10371184;28;20692;-74
2021/08/11 06:03:50;;;;;;;4.47;4.07;;;20.80;41.50;;;;;;10370207;28;20230;-76
2021/08/11 06:08:55;;;;;;;5.83;4.17;;;20.90;41.80;;;;;;10370475;28;20226;-76
2021/08/11 06:13:58;;;;;;;5.13;4.20;;;21.00;42.70;;;;;;10370542;28;20222;-76
2021/08/11 06:19:01;;;;;;;3.83;3.53;;;21.10;42.00;;;;;;10369701;28;20242;-76
2021/08/11 06:24:06;;;;;;;4.67;4.37;;;21.20;41.80;;;;;;10369450;28;20230;-76
2021/08/11 06:29:09;;;;;;;6.27;4.17;;;21.30;42.70;;;;;;10369297;28;20242;-75
2021/08/11 06:34:12;;;;;;;7.83;4.63;;;21.40;42.10;;;;;;10372446;28;20245;-77
2021/08/11 06:39:17;;;;;;;5.47;4.30;;;21.50;42.20;;;;;;10373641;28;20248;-75
2021/08/11 06:44:21;;;;;;;4.57;4.17;;;21.60;42.60;;;;;;10376587;28;20230;-78
2021/08/11 06:49:24;;;;;;;4.60;4.20;;;21.70;42.20;;;;;;10375817;28;20250;-78
2021/08/11 06:54:29;;;;;;;5.77;4.13;;;21.80;42.50;;;;;;10360465;28;20241;-78
2021/08/11 06:59:32;;;;;;;4.30;3.90;;;21.90;42.80;;;;;;10331893;28;20235;-76
2021/08/11 07:04:35;;;;;;;4.50;4.10;;;22.00;42.70;;;;;;10330188;28;20230;-76
2021/08/11 07:09:39;;;;;;;4.53;3.83;;;22.10;42.50;;;;;;10367435;28;20246;-76
2021/08/11 07:14:43;;;;;;;4.47;4.03;;;22.20;42.80;;;;;;10376286;28;20236;-76
2021/08/11 07:19:46;;;;;;;4.53;3.90;;;22.40;42.60;;;;;;10376109;28;20265;-78
2021/08/11 07:24:51;;;;;;;4.23;3.80;;;22.50;42.60;;;;;;10372374;28;20714;-78
2021/08/11 07:29:54;;;;;;;3.57;3.27;;;22.70;43.00;;;;;;10387758;28;20244;-79
2021/08/11 07:34:57;;;;;;;4.23;3.83;;;22.80;42.60;;;;;;10373320;28;20222;-78
2021/08/11 07:40:02;;;;;;;3.93;3.60;;;23.00;42.30;;;;;;10372134;28;20238;-79
2021/08/11 07:45:05;;;;;;;3.70;3.40;;;23.20;42.10;;;;;;10372850;28;20226;-78
2021/08/11 07:50:10;;;;;;;3.70;3.33;;;23.30;41.90;;;;;;10374867;28;20324;-79
2021/08/11 07:55:15;;;;;;;4.40;3.37;;;23.60;41.80;;;;;;10374566;28;20238;-78
2021/08/11 08:00:20;;;;;;;6.20;3.57;;;23.80;41.60;;;;;;10374482;28;20860;-75
2021/08/11 08:05:24;;;;;;;3.93;3.50;;;24.00;40.90;;;;;;10364535;28;20230;-77
2021/08/11 08:10:28;;;;;;;3.40;3.10;;;24.30;40.80;;;;;;10386905;28;20260;-74
2021/08/11 08:15:32;;;;;;;3.10;2.90;;;24.50;40.50;;;;;;10361945;28;20808;-75
2021/08/11 08:20:35;;;;;;;2.97;2.77;;;24.80;40.10;;;;;;10375806;28;20245;-75
2021/08/11 08:25:40;;;;;;;2.70;2.50;;;25.10;39.40;;;;;;10366045;28;20230;-76
2021/08/11 08:30:44;;;;;;;2.23;2.13;;;25.30;37.50;;;;;;10375304;28;20234;-77
2021/08/11 08:35:47;;;;;;;2.80;2.50;;;25.50;37.70;;;;;;10373854;28;20230;-75
2021/08/11 08:40:53;;;;;;;2.70;2.50;;;25.80;37.70;;;;;;10357464;28;20261;-77
2021/08/11 08:45:56;;;;;;;2.57;2.37;;;26.00;36.70;;;;;;10380551;28;20232;-74
2021/08/11 08:51:00;;;;;;;3.87;3.37;;;26.20;37.40;;;;;;10386378;28;20238;-74
2021/08/11 08:56:06;;;;;;;2.70;2.50;;;26.50;36.70;;;;;;10351216;28;20252;-74
2021/08/11 09:01:09;;;;;;;2.50;2.30;;;26.70;35.40;;;;;;10377691;28;20265;-74
2021/08/11 09:06:12;;;;;;;2.30;2.10;;;26.90;35.50;;;;;;10378193;28;20820;-74
2021/08/11 09:11:17;;;;;;;1.90;1.80;;;27.10;35.00;;;;;;10366729;28;20253;-75
2021/08/11 09:16:20;;;;;;;2.63;2.00;;;27.20;34.30;;;;;;10375440;28;20744;-75
2021/08/11 09:21:24;;;;;;;1.87;1.77;;;27.40;34.10;;;;;;10369205;28;20280;-78
2021/08/11 09:26:39;;;;;;;2.00;1.90;;;27.60;33.70;;;;;;10364521;28;20230;-77
2021/08/11 09:31:42;;;;;;;2.13;2.00;;;27.80;31.80;;;;;;10364542;28;20240;-76
2021/08/11 09:36:49;;;;;;;2.00;1.80;;;27.90;33.00;;;;;;10364670;28;20245;-71
2021/08/11 09:42:00;;;;;;;1.90;1.80;;;28.00;33.00;;;;;;10365166;28;20230;-74
2021/08/11 09:47:12;;;;;;;2.10;1.90;;;28.20;31.50;;;;;;10366819;28;20241;-75
2021/08/11 09:52:15;;;;;;;1.83;1.73;;;28.30;30.50;;;;;;10355452;28;20239;-75
2021/08/11 09:57:30;;;;;;;2.30;2.20;;;28.50;32.00;;;;;;10325439;28;20234;-77
2021/08/11 10:02:33;;;;;;;2.03;1.93;;;28.70;31.00;;;;;;10324418;28;20239;-76
2021/08/11 10:07:36;;;;;;;2.43;2.23;;;28.80;31.40;;;;;;10332092;28;20238;-76
2021/08/11 10:12:41;;;;;;;2.40;2.20;;;29.00;30.90;;;;;;10375180;28;20233;-76
2021/08/11 10:17:45;;;;;;;1.83;1.73;;;29.10;30.80;;;;;;10364395;28;20234;-75
2021/08/11 10:22:49;;;;;;;2.50;2.30;;;29.30;31.10;;;;;;10358608;28;20231;-76
2021/08/11 10:27:55;;;;;;;4.10;2.30;;;29.40;30.50;;;;;;10371783;28;20288;-75
2021/08/11 10:32:59;;;;;;;2.60;2.40;;;29.60;30.20;;;;;;10354507;28;20269;-76
2021/08/11 10:38:05;;;;;;;5.47;2.30;;;29.70;30.10;;;;;;10369287;28;20729;-74
2021/08/11 10:43:13;;;;;;;4.27;2.30;;;29.70;29.00;;;;;;10354027;28;20270;-74
2021/08/11 10:48:18;;;;;;;2.47;2.27;;;29.80;29.40;;;;;;10356456;28;20222;-76
2021/08/11 10:53:22;;;;;;;2.50;2.30;;;29.90;29.20;;;;;;10362532;28;21614;-76
2021/08/11 10:58:43;;;;;;;2.70;2.50;;;29.90;28.90;;;;;;10351533;28;20234;-76
2021/08/11 11:03:51;;;;;;;2.93;2.30;;;29.80;28.80;;;;;;10357048;28;20312;-76
2021/08/11 11:09:17;;;;;;;2.77;2.07;;;29.80;28.90;;;;;;10361878;28;20250;-76
2021/08/11 11:14:53;;;;;;;3.60;2.30;;;29.90;28.90;;;;;;10357231;28;20261;-75
2021/08/11 11:20:27;;;;;;;2.63;2.43;;;29.90;29.10;;;;;;10354240;28;20230;-76
2021/08/11 11:26:07;;;;;;;2.33;2.13;;;29.90;28.40;;;;;;10356162;28;20226;-76
2021/08/11 11:31:42;;;;;;;2.40;2.20;;;29.90;28.30;;;;;;10360244;28;20234;-76
2021/08/11 11:37:07;;;;;;;2.40;2.20;;;30.00;28.40;;;;;;10359047;28;20261;-78
2021/08/11 11:42:29;;;;;;;2.80;2.40;;;30.20;28.70;;;;;;10370072;28;20241;-78
2021/08/11 11:48:10;;;;;;;3.37;2.30;;;30.40;27.90;;;;;;10358248;28;20230;-77
2021/08/11 11:53:30;;;;;;;2.50;2.30;;;30.50;28.10;;;;;;10353835;28;20239;-76
2021/08/11 11:58:45;;;;;;;2.47;2.30;;;30.60;27.50;;;;;;10361421;28;20249;-77
2021/08/11 12:03:55;;;;;;;2.20;2.10;;;30.70;26.60;;;;;;10368074;28;20230;-78
2021/08/11 12:09:01;;;;;;;3.03;2.50;;;30.70;26.90;;;;;;10363927;28;20305;-76
2021/08/11 12:14:05;;;;;;;2.37;2.20;;;30.70;26.50;;;;;;10354064;28;20237;-78
2021/08/11 12:19:13;;;;;;;3.47;2.20;;;30.60;27.00;;;;;;10365825;28;20244;-79
2021/08/11 12:24:18;;;;;;;2.67;2.20;;;30.60;26.20;;;;;;10357106;28;20245;-79
2021/08/11 12:29:22;;;;;;;2.17;2.07;;;30.50;26.10;;;;;;10348758;28;20324;-75
2021/08/11 12:34:26;;;;;;;2.60;2.40;;;30.50;26.70;;;;;;10354020;28;20237;-77
2021/08/11 12:39:37;;;;;;;2.60;2.40;;;30.60;26.90;;;;;;10354624;28;21394;-76
2021/08/11 12:44:40;;;;;;;2.40;2.23;;;30.70;26.00;;;;;;10350668;28;20324;-77
2021/08/11 12:49:49;;;;;;;3.00;2.70;;;30.80;27.20;;;;;;10361122;28;20230;-76
2021/08/11 12:54:57;;;;;;;2.57;2.47;;;30.90;26.30;;;;;;10355437;28;20230;-77
2021/08/11 13:00:01;;;;;;;2.47;2.37;;;30.90;25.70;;;;;;10344557;28;20313;-78
2021/08/11 13:05:06;;;;;;;2.70;2.50;;;30.90;26.10;;;;;;10355590;28;20237;-78
2021/08/11 13:10:12;;;;;;;2.97;2.77;;;30.90;25.80;;;;;;10354615;28;20313;-77
2021/08/11 13:15:24;;;;;;;2.70;2.50;;;30.90;26.00;;;;;;10355476;28;20761;-77
2021/08/11 13:20:29;;;;;;;2.60;2.40;;;30.90;25.30;;;;;;10358012;28;20230;-79
2021/08/11 13:25:36;;;;;;;2.77;2.50;;;30.80;25.70;;;;;;10352825;28;20253;-77
2021/08/11 13:30:40;;;;;;;2.83;2.63;;;30.80;25.50;;;;;;10356006;28;20320;-77
2021/08/11 13:35:43;;;;;;;3.20;2.93;;;30.80;25.60;;;;;;10350729;28;20261;-76
2021/08/11 13:40:48;;;;;;;3.03;2.83;;;30.80;25.30;;;;;;10346754;28;20234;-77
2021/08/11 13:45:52;;;;;;;2.63;2.43;;;30.80;25.40;;;;;;10363411;28;20238;-77
2021/08/11 13:50:55;;;;;;;2.90;2.70;;;30.70;25.60;;;;;;10361782;28;20242;-76
2021/08/11 13:56:01;;;;;;;3.00;2.70;;;30.80;25.90;;;;;;10368354;28;20237;-77
2021/08/11 14:01:04;;;;;;;3.10;2.90;;;30.90;25.10;;;;;;10365986;28;20234;-76
2021/08/11 14:06:08;;;;;;;2.90;2.70;;;30.90;25.20;;;;;;10357902;28;20230;-76
2021/08/11 14:11:12;;;;;;;2.83;2.63;;;30.90;25.50;;;;;;10360670;28;20238;-77
2021/08/11 14:16:15;;;;;;;2.70;2.50;;;30.90;25.50;;;;;;10357500;28;20246;-77
2021/08/11 14:21:19;;;;;;;2.73;2.53;;;30.90;25.90;;;;;;10368192;28;20341;-76
2021/08/11 14:26:24;;;;;;;3.33;3.00;;;30.90;25.40;;;;;;10363712;28;20230;-77
2021/08/11 14:31:28;;;;;;;3.67;2.97;;;30.90;25.00;;;;;;10369900;28;20234;-78
2021/08/11 14:36:31;;;;;;;2.80;2.60;;;30.90;25.40;;;;;;10363819;28;20334;-77
2021/08/11 14:41:36;;;;;;;3.10;2.90;;;31.00;25.40;;;;;;10365439;28;20608;-79
2021/08/11 14:46:40;;;;;;;2.90;2.70;;;31.00;24.70;;;;;;10360256;28;20226;-79
2021/08/11 14:51:43;;;;;;;3.00;2.80;;;31.00;25.40;;;;;;10371255;28;20781;-79
2021/08/11 14:56:48;;;;;;;3.23;3.00;;;31.10;25.30;;;;;;10358499;28;20245;-77
2021/08/11 15:01:51;;;;;;;3.00;2.80;;;31.10;24.70;;;;;;10365835;28;20238;-78
2021/08/11 15:06:54;;;;;;;3.57;3.23;;;31.20;25.10;;;;;;10357875;28;20226;-79
2021/08/11 15:11:59;;;;;;;3.33;3.03;;;31.20;24.40;;;;;;10360965;28;20250;-79
2021/08/11 15:17:02;;;;;;;3.63;3.33;;;31.20;23.90;;;;;;10363385;28;20592;-79
2021/08/11 15:22:05;;;;;;;3.77;3.37;;;31.20;25.00;;;;;;10353772;28;20238;-79
2021/08/11 15:27:10;;;;;;;3.80;3.27;;;31.30;24.50;;;;;;10353030;28;20246;-79
2021/08/11 15:32:13;;;;;;;3.03;2.83;;;31.30;24.20;;;;;;10358820;28;20234;-77
2021/08/11 15:37:16;;;;;;;3.50;3.20;;;31.40;24.40;;;;;;10360565;28;20235;-80
2021/08/11 15:42:21;;;;;;;3.40;3.10;;;31.50;24.20;;;;;;10355930;28;20230;-79
2021/08/11 15:47:24;;;;;;;4.57;3.50;;;31.50;23.30;;;;;;10361489;28;20229;-78
2021/08/11 15:52:27;;;;;;;3.43;3.20;;;31.50;23.80;;;;;;10360805;28;20609;-78
2021/08/11 15:57:32;;;;;;;3.87;3.23;;;31.40;23.70;;;;;;10350622;28;20768;-77
2021/08/11 16:02:36;;;;;;;3.50;3.20;;;31.40;23.70;;;;;;10349350;28;20235;-79
2021/08/11 16:07:40;;;;;;;4.17;3.50;;;31.40;23.80;;;;;;10356063;28;20646;-77
2021/08/11 16:12:46;;;;;;;3.60;3.30;;;31.40;24.00;;;;;;10348615;28;20240;-77
2021/08/11 16:17:49;;;;;;;3.53;3.23;;;31.50;23.40;;;;;;10349537;28;20241;-78
2021/08/11 16:22:52;;;;;;;3.37;3.10;;;31.50;23.50;;;;;;10352506;28;20706;-79
2021/08/11 16:27:58;;;;;;;3.83;3.47;;;31.60;23.40;;;;;;10346898;28;20719;-78
2021/08/11 16:33:01;;;;;;;3.40;3.10;;;31.60;23.40;;;;;;10344705;28;20733;-78
2021/08/11 16:38:05;;;;;;;3.87;3.50;;;31.60;23.40;;;;;;10342262;28;20922;-78
2021/08/11 16:43:09;;;;;;;3.63;3.20;;;31.60;23.90;;;;;;10348588;28;20972;-77
2021/08/11 16:48:13;;;;;;;3.83;3.20;;;31.60;24.00;;;;;;10347636;28;20317;-78
2021/08/11 16:53:16;;;;;;;3.57;3.27;;;31.50;23.90;;;;;;10345947;28;20231;-77
2021/08/11 16:58:21;;;;;;;3.30;3.10;;;31.50;24.20;;;;;;10347739;28;20222;-77
2021/08/11 17:03:25;;;;;;;3.30;3.10;;;31.50;23.60;;;;;;10344062;28;20264;-78
2021/08/11 17:08:28;;;;;;;3.30;3.10;;;31.50;24.00;;;;;;10352218;28;20323;-78
2021/08/11 17:13:33;;;;;;;3.43;3.13;;;31.50;24.30;;;;;;10348736;28;20703;-78
2021/08/11 17:18:37;;;;;;;3.67;3.40;;;31.50;24.60;;;;;;10358309;28;20233;-77
2021/08/11 17:23:40;;;;;;;3.43;3.13;;;31.40;24.40;;;;;;10362793;28;20256;-78
2021/08/11 17:28:45;;;;;;;3.97;3.57;;;31.40;24.40;;;;;;10367297;28;20234;-78
2021/08/11 17:33:49;;;;;;;3.77;3.27;;;31.20;24.80;;;;;;10357615;28;20233;-79
2021/08/11 17:38:52;;;;;;;4.23;3.90;;;31.10;25.10;;;;;;10358927;28;20996;-78
2021/08/11 17:43:57;;;;;;;3.43;3.13;;;31.00;25.20;;;;;;10367960;28;20226;-81
2021/08/11 17:49:00;;;;;;;3.80;3.50;;;30.90;25.20;;;;;;10354866;28;20222;-78
2021/08/11 17:54:04;;;;;;;3.30;3.10;;;30.90;25.50;;;;;;10354309;28;20226;-78
2021/08/11 17:59:08;;;;;;;4.13;3.23;;;30.70;25.50;;;;;;10356660;28;20246;-78
2021/08/11 18:04:11;;;;;;;3.83;3.33;;;30.70;25.80;;;;;;10350043;28;20792;-78
2021/08/11 18:09:14;;;;;;;4.63;3.50;;;30.60;26.00;;;;;;10355947;28;20222;-77
2021/08/11 18:14:19;;;;;;;3.87;3.57;;;30.50;26.10;;;;;;10353341;28;20237;-78
2021/08/11 18:19:23;;;;;;;4.60;3.53;;;30.40;26.40;;;;;;10345649;28;20710;-78
2021/08/11 18:24:26;;;;;;;5.57;3.60;;;30.30;26.40;;;;;;10344525;28;21080;-78
2021/08/11 18:29:31;;;;;;;3.73;3.33;;;30.20;26.30;;;;;;10349481;28;20649;-78
2021/08/11 18:34:34;;;;;;;4.00;3.47;;;30.10;26.70;;;;;;10348293;28;20242;-78
2021/08/11 18:39:39;;;;;;;6.37;3.50;;;30.00;26.60;;;;;;10354297;28;20230;-77
2021/08/11 18:44:43;;;;;;;4.00;3.67;;;29.90;27.00;;;;;;10352434;28;20242;-77
2021/08/11 18:49:47;;;;;;;5.77;3.77;;;29.80;27.00;;;;;;10351088;28;20236;-78
2021/08/11 18:54:50;;;;;;;3.93;3.50;;;29.70;27.00;;;;;;10352428;28;20707;-77
2021/08/11 18:59:55;;;;;;;4.17;3.77;;;29.50;27.20;;;;;;10348914;28;20244;-77
2021/08/11 19:04:58;;;;;;;3.50;3.20;;;29.50;27.70;;;;;;10353132;28;20246;-77
2021/08/11 19:10:01;;;;;;;4.30;3.70;;;29.30;27.50;;;;;;10344558;28;20235;-78
2021/08/11 19:15:06;;;;;;;3.73;3.27;;;29.20;27.80;;;;;;10343968;28;20228;-79
2021/08/11 19:20:12;;;;;;;4.10;3.70;;;29.10;28.30;;;;;;10342787;28;20241;-78
2021/08/11 19:25:15;;;;;;;3.83;3.53;;;29.00;28.20;;;;;;10348152;28;20639;-78
2021/08/11 19:30:20;;;;;;;5.53;3.53;;;28.90;28.10;;;;;;10345076;28;20239;-78
2021/08/11 19:35:27;;;;;;;3.67;3.37;;;28.80;28.50;;;;;;10343429;28;20264;-78
2021/08/11 19:40:31;;;;;;;3.83;3.53;;;28.70;28.30;;;;;;10345778;28;20612;-78
2021/08/11 19:45:35;;;;;;;3.63;3.30;;;28.60;28.40;;;;;;10339893;28;20226;-78
2021/08/11 19:50:39;;;;;;;3.70;3.40;;;28.60;28.90;;;;;;10340067;28;20230;-78
2021/08/11 19:55:42;;;;;;;4.17;3.10;;;28.40;28.80;;;;;;10340399;28;20230;-77
2021/08/11 20:00:47;;;;;;;3.77;3.47;;;28.30;28.70;;;;;;10344547;28;20237;-77
2021/08/11 20:05:50;;;;;;;4.80;3.33;;;28.20;29.10;;;;;;10337716;28;20254;-77
2021/08/11 20:10:54;;;;;;;3.87;3.10;;;28.10;29.00;;;;;;10337758;28;20301;-77
2021/08/11 20:15:59;;;;;;;3.47;3.27;;;28.00;29.20;;;;;;10345482;28;20230;-78
2021/08/11 20:21:03;;;;;;;4.13;3.30;;;27.90;29.60;;;;;;10342461;28;20241;-78
2021/08/11 20:26:06;;;;;;;4.23;3.67;;;27.80;29.50;;;;;;10355935;28;20242;-78
2021/08/11 20:31:10;;;;;;;4.37;3.50;;;27.80;29.70;;;;;;10360554;28;20242;-78
2021/08/11 20:36:14;;;;;;;4.43;3.73;;;27.60;30.00;;;;;;10346079;28;20238;-77
2021/08/11 20:41:17;;;;;;;3.77;3.47;;;27.50;30.00;;;;;;10348255;28;20242;-78
2021/08/11 20:46:22;;;;;;;4.00;3.70;;;27.40;29.90;;;;;;10344469;28;20337;-78
2021/08/11 20:51:25;;;;;;;4.10;3.70;;;27.30;29.90;;;;;;10342632;28;20585;-78
2021/08/11 20:56:30;;;;;;;3.90;3.60;;;27.20;29.80;;;;;;10352923;28;20778;-78
2021/08/11 21:01:35;;;;;;;5.40;3.67;;;27.00;29.70;;;;;;10340376;28;20238;-78
2021/08/11 21:06:38;;;;;;;3.60;3.30;;;26.90;30.50;;;;;;10344920;28;20253;-78
2021/08/11 21:11:41;;;;;;;3.57;3.33;;;26.80;30.20;;;;;;10347738;28;20245;-78
2021/08/11 21:16:47;;;;;;;3.80;3.50;;;26.70;30.30;;;;;;10348864;28;20219;-78
2021/08/11 21:21:51;;;;;;;3.47;3.27;;;26.60;30.90;;;;;;10347815;28;20262;-78
2021/08/11 21:26:54;;;;;;;3.67;3.37;;;26.50;30.80;;;;;;10346914;28;20718;-78
2021/08/11 21:31:59;;;;;;;4.10;3.30;;;26.40;30.80;;;;;;10348914;28;20600;-77
2021/08/11 21:37:02;;;;;;;4.20;3.57;;;26.30;31.50;;;;;;10345854;28;20242;-78
2021/08/11 21:42:05;;;;;;;4.97;3.63;;;26.20;31.10;;;;;;10352228;28;20231;-77
2021/08/11 21:47:10;;;;;;;4.10;3.70;;;26.10;31.20;;;;;;10353151;28;20245;-78
2021/08/11 21:52:13;;;;;;;3.80;3.50;;;26.00;31.90;;;;;;10346084;28;20237;-79
2021/08/11 21:57:16;;;;;;;3.73;3.43;;;26.00;31.50;;;;;;10343491;28;20239;-79
2021/08/11 22:02:21;;;;;;;3.53;3.23;;;25.90;31.50;;;;;;10343433;28;20230;-78
2021/08/11 22:07:24;;;;;;;3.43;3.13;;;25.80;32.00;;;;;;10351667;28;20248;-78
2021/08/11 22:12:28;;;;;;;3.53;3.23;;;25.70;31.70;;;;;;10347690;28;20242;-78
2021/08/11 22:17:33;;;;;;;4.67;3.53;;;25.60;32.00;;;;;;10353239;28;20601;-79
2021/08/11 22:22:37;;;;;;;3.97;3.67;;;25.50;32.70;;;;;;10345568;28;20237;-78
2021/08/11 22:27:40;;;;;;;4.07;3.27;;;25.40;32.20;;;;;;10343803;28;20235;-78
2021/08/11 22:32:46;;;;;;;3.73;3.20;;;25.40;32.40;;;;;;10348757;28;20234;-79
2021/08/11 22:37:50;;;;;;;3.63;3.33;;;25.20;32.50;;;;;;10345931;28;20235;-79
2021/08/11 22:42:53;;;;;;;3.30;3.00;;;25.20;32.40;;;;;;10344404;28;20234;-79
2021/08/11 22:47:58;;;;;;;3.40;3.10;;;25.20;32.50;;;;;;10355719;28;20310;-78
2021/08/11 22:53:01;;;;;;;6.13;3.43;;;25.20;33.00;;;;;;10346500;28;20238;-79
2021/08/11 22:58:04;;;;;;;6.43;3.50;;;25.00;32.60;;;;;;10345964;28;21018;-78
2021/08/11 23:03:09;;;;;;;4.00;3.67;;;25.00;32.80;;;;;;10349451;28;20238;-78
2021/08/11 23:08:12;;;;;;;4.43;3.27;;;24.90;33.10;;;;;;10347987;28;20301;-79
2021/08/11 23:13:16;;;;;;;3.27;3.07;;;24.80;32.80;;;;;;10347221;28;20723;-78
2021/08/11 23:18:20;;;;;;;4.93;3.40;;;24.60;33.00;;;;;;10356636;28;20238;-78
2021/08/11 23:23:23;;;;;;;4.07;3.67;;;24.50;33.60;;;;;;10345559;28;20245;-78
2021/08/11 23:28:29;;;;;;;4.93;3.40;;;24.40;33.40;;;;;;10352322;28;21046;-79
2021/08/11 23:33:34;;;;;;;4.27;3.77;;;24.40;33.40;;;;;;10346653;28;20236;-79
2021/08/11 23:38:37;;;;;;;4.90;3.30;;;24.30;33.90;;;;;;10354338;28;20596;-78
2021/08/11 23:43:40;;;;;;;3.67;3.37;;;24.20;33.60;;;;;;10352415;28;20261;-78
2021/08/11 23:48:45;;;;;;;3.80;3.50;;;24.20;33.60;;;;;;10350653;28;20253;-78
2021/08/11 23:53:48;;;;;;;3.40;3.10;;;24.10;33.90;;;;;;10353260;28;20237;-78
2021/08/11 23:58:51;;;;;;;3.60;3.17;;;24.10;33.70;;;;;;10352142;28;20341;-79
